Time;durP1;ratioP1;P1;durP2;ratioP2;P2;SDS_P1;SDS_P2;PMS_P1;PMS_P2;Temp;Humidity;BMP_temperature;BMP_pressure;BME280_temperature;BME280_humidity;BME280_pressure;Samples;Min_cycle;Max_cycle;Signal;HPM_P1;HPM_P2
2021/12/05 00:19:01;;;;;;;44.97;20.70;;;-2.60;94.20;;;;;;5056553;28;20375;-83
2021/12/05 00:21:40;;;;;;;41.58;20.35;;;-2.60;94.70;;;;;;5056009;28;20045;-83
2021/12/05 00:24:13;;;;;;;45.17;21.88;;;-2.60;94.40;;;;;;5038952;28;20391;-83
2021/12/05 00:26:39;;;;;;;38.45;18.55;;;-2.60;94.40;;;;;;5056303;28;20474;-83
2021/12/05 01:06:55;;;;;;;37.13;17.35;;;-2.50;94.70;;;;;;5055721;28;20043;-82
2021/12/05 01:15:01;;;;;;;39.70;19.77;;;-2.60;94.90;;;;;;5046624;28;20039;-82
2021/12/05 01:17:34;;;;;;;37.40;18.70;;;-2.60;94.40;;;;;;5071009;28;20037;-82
2021/12/05 01:20:03;;;;;;;40.33;19.08;;;-2.70;94.60;;;;;;5037504;28;20047;-82
2021/12/05 01:22:32;;;;;;;38.15;19.25;;;-2.70;95.60;;;;;;5055041;28;20021;-81
2021/12/05 01:25:23;;;;;;;37.97;19.10;;;-2.70;95.70;;;;;;5037457;28;20124;-81
2021/12/05 01:28:11;;;;;;;37.08;18.25;;;-2.60;95.50;;;;;;5054507;28;20045;-81
2021/12/05 01:33:17;;;;;;;29.25;16.02;;;-2.60;94.70;;;;;;5055096;28;20510;-82
2021/12/05 01:44:38;;;;;;;37.35;17.63;;;-2.70;96.40;;;;;;5055073;28;20037;-81
2021/12/05 01:59:58;;;;;;;35.47;16.58;;;-2.40;97.40;;;;;;5054176;28;20037;-81
2021/12/05 02:16:05;;;;;;;28.95;15.55;;;-2.20;99.00;;;;;;5054289;28;20090;-81
2021/12/05 02:43:10;;;;;;;49.33;23.35;;;-2.70;97.40;;;;;;5054058;28;20116;-82
2021/12/05 02:45:40;;;;;;;49.63;23.02;;;-2.70;97.20;;;;;;5035935;28;20123;-82
2021/12/05 02:48:07;;;;;;;43.40;19.88;;;-2.70;97.30;;;;;;5035925;28;20483;-82
2021/12/05 02:50:35;;;;;;;47.25;21.58;;;-2.80;97.30;;;;;;5053880;28;20033;-82
2021/12/05 02:53:12;;;;;;;46.63;20.70;;;-2.80;97.90;;;;;;5039039;28;20045;-82
2021/12/05 02:55:41;;;;;;;43.90;21.83;;;-2.90;97.90;;;;;;5060131;28;20095;-82
2021/12/05 02:58:21;;;;;;;41.35;20.42;;;-2.90;97.90;;;;;;5060895;28;20119;-82
2021/12/05 03:03:23;;;;;;;42.75;19.60;;;-3.00;97.80;;;;;;5060659;28;20041;-82
2021/12/05 03:06:01;;;;;;;45.05;21.13;;;-3.00;98.00;;;;;;5060441;28;20039;-81
2021/12/05 03:08:27;;;;;;;40.08;18.80;;;-3.10;97.90;;;;;;5060322;28;20033;-82
2021/12/05 03:10:54;;;;;;;40.63;18.05;;;-3.10;97.70;;;;;;5060537;28;20044;-82
2021/12/05 03:13:21;;;;;;;41.13;18.75;;;-3.10;97.80;;;;;;5060236;28;20076;-81
2021/12/05 03:15:47;;;;;;;38.03;18.08;;;-3.10;97.50;;;;;;5060308;28;20029;-82
2021/12/05 03:18:13;;;;;;;38.65;18.15;;;-3.20;97.30;;;;;;5042541;28;20037;-80
2021/12/05 03:20:39;;;;;;;33.22;16.35;;;-3.20;97.20;;;;;;5060466;28;20037;-81
2021/12/05 03:23:05;;;;;;;28.45;14.95;;;-3.30;97.70;;;;;;5042184;28;20037;-81
2021/12/05 03:25:31;;;;;;;35.85;16.05;;;-3.30;97.60;;;;;;5060302;28;20033;-81
2021/12/05 03:27:57;;;;;;;34.05;16.33;;;-3.20;97.90;;;;;;5060295;28;20040;-81
2021/12/05 03:30:25;;;;;;;33.75;14.25;;;-3.20;98.00;;;;;;5059968;28;20041;-82
2021/12/05 03:32:53;;;;;;;36.17;16.75;;;-3.20;98.00;;;;;;5043050;28;20506;-80
2021/12/05 03:35:22;;;;;;;33.67;16.58;;;-3.20;98.50;;;;;;5042665;28;20040;-81
2021/12/05 03:37:48;;;;;;;37.38;17.63;;;-3.20;98.90;;;;;;5060171;28;20091;-80
2021/12/05 03:40:14;;;;;;;35.40;16.60;;;-3.10;99.00;;;;;;5060040;28;20187;-81
2021/12/05 03:42:41;;;;;;;37.13;17.60;;;-3.10;98.60;;;;;;5041967;28;20128;-81
2021/12/05 03:45:15;;;;;;;34.40;17.13;;;-3.10;98.80;;;;;;5060050;28;20383;-81
2021/12/05 03:47:41;;;;;;;33.55;16.38;;;-3.10;99.10;;;;;;5059825;28;20044;-81
2021/12/05 03:50:10;;;;;;;30.98;15.52;;;-3.00;98.90;;;;;;5059858;28;20037;-82
2021/12/05 03:52:36;;;;;;;33.20;16.63;;;-3.00;99.10;;;;;;5042889;28;20033;-82
2021/12/05 03:55:04;;;;;;;34.05;18.02;;;-2.90;99.90;;;;;;5042208;28;20047;-82
2021/12/05 03:57:30;;;;;;;37.30;18.52;;;-2.90;99.90;;;;;;5060227;28;20049;-81
2021/12/05 03:59:56;;;;;;;53.17;24.23;;;-2.80;99.90;;;;;;5059563;28;20128;-81
2021/12/05 04:02:22;;;;;;;59.17;24.27;;;-2.70;99.90;;;;;;5041849;28;20135;-81
2021/12/05 04:04:50;;;;;;;67.95;25.38;;;-2.60;99.90;;;;;;5039370;28;20132;-81
2021/12/05 04:07:16;;;;;;;89.25;28.85;;;-2.50;99.90;;;;;;5056641;28;20029;-82
2021/12/05 04:09:42;;;;;;;68.85;25.05;;;-2.50;99.90;;;;;;5056415;28;20037;-82
2021/12/05 04:12:09;;;;;;;76.55;24.00;;;-2.40;99.90;;;;;;5056589;28;20124;-82
2021/12/05 04:14:39;;;;;;;63.40;21.60;;;-2.40;99.90;;;;;;5056415;28;20044;-81
2021/12/05 04:17:07;;;;;;;77.55;23.92;;;-2.40;99.90;;;;;;5056473;28;20025;-82
2021/12/05 04:19:34;;;;;;;60.70;21.00;;;-2.40;99.90;;;;;;5038656;28;20040;-82
2021/12/05 04:22:00;;;;;;;56.33;21.38;;;-2.40;99.90;;;;;;5055920;28;20494;-82
2021/12/05 04:24:26;;;;;;;53.28;18.50;;;-2.40;99.90;;;;;;5056178;28;20456;-81
2021/12/05 04:26:52;;;;;;;43.50;17.45;;;-2.40;99.90;;;;;;5056429;28;20033;-82
2021/12/05 04:29:18;;;;;;;53.40;17.55;;;-2.40;99.90;;;;;;5038343;28;20033;-82
2021/12/05 04:31:44;;;;;;;86.65;22.15;;;-2.40;99.90;;;;;;5038139;28;20037;-81
2021/12/05 04:34:11;;;;;;;35.72;14.10;;;-2.40;99.90;;;;;;5038358;28;20069;-82
2021/12/05 04:36:38;;;;;;;41.05;16.00;;;-2.30;99.90;;;;;;5038791;28;20123;-82
2021/12/05 04:39:05;;;;;;;37.85;14.82;;;-2.30;99.90;;;;;;5056056;28;20029;-82
2021/12/05 04:41:32;;;;;;;50.63;17.50;;;-2.30;99.90;;;;;;5038726;28;20052;-81
2021/12/05 04:44:00;;;;;;;46.00;16.70;;;-2.20;99.90;;;;;;5055684;28;20029;-81
2021/12/05 04:46:26;;;;;;;66.60;18.05;;;-2.20;99.90;;;;;;5037710;28;20467;-81
2021/12/05 04:48:54;;;;;;;38.17;13.77;;;-2.10;99.90;;;;;;5037905;28;20037;-81
2021/12/05 04:51:24;;;;;;;52.58;13.50;;;-2.10;99.90;;;;;;5037713;28;20430;-82
2021/12/05 04:53:51;;;;;;;30.20;12.30;;;-2.00;99.90;;;;;;5056462;28;20033;-82
2021/12/05 04:56:16;;;;;;;43.55;14.68;;;-2.00;99.90;;;;;;5037430;28;20040;-82
2021/12/05 04:58:43;;;;;;;33.85;13.40;;;-1.90;99.90;;;;;;5037751;28;20037;-80
2021/12/05 05:01:09;;;;;;;29.80;12.40;;;-1.90;99.90;;;;;;5037877;28;20152;-82
2021/12/05 05:03:35;;;;;;;28.40;10.95;;;-1.80;99.90;;;;;;5037814;28;20075;-80
2021/12/05 05:06:09;;;;;;;35.20;13.38;;;-1.70;99.90;;;;;;5055487;28;20041;-81
2021/12/05 05:08:35;;;;;;;32.30;12.32;;;-1.60;99.90;;;;;;5055620;28;20025;-81
2021/12/05 05:11:06;;;;;;;33.25;13.95;;;-1.50;99.90;;;;;;5055145;28;20040;-81
2021/12/05 05:13:33;;;;;;;31.90;13.40;;;-1.50;99.90;;;;;;5055196;28;20032;-81
2021/12/05 05:15:59;;;;;;;29.50;12.60;;;-1.40;99.90;;;;;;5036993;28;20040;-79
2021/12/05 05:18:32;;;;;;;36.80;13.40;;;-1.30;99.90;;;;;;5037356;28;20422;-80
2021/12/05 05:21:07;;;;;;;27.77;12.57;;;-1.30;99.90;;;;;;5055608;28;20033;-80
2021/12/05 05:50:28;;;;;;;40.80;17.77;;;-0.80;99.90;;;;;;5030909;28;20037;-81
2021/12/05 05:52:54;;;;;;;45.30;19.20;;;-0.80;99.90;;;;;;5054593;28;20037;-82
2021/12/05 05:55:20;;;;;;;42.78;19.02;;;-0.80;99.90;;;;;;5036655;28;20087;-82
2021/12/05 06:00:30;;;;;;;54.50;20.98;;;-0.80;99.90;;;;;;5054757;28;20033;-81
2021/12/05 06:05:40;;;;;;;73.60;23.70;;;-0.80;99.90;;;;;;5054470;28;20098;-82
2021/12/05 06:08:06;;;;;;;63.03;24.02;;;-0.80;99.90;;;;;;5037246;28;20071;-82
2021/12/05 06:10:32;;;;;;;58.28;22.00;;;-0.90;99.90;;;;;;5054045;28;20072;-82
2021/12/05 06:12:59;;;;;;;59.88;22.42;;;-0.90;99.90;;;;;;5036084;28;20072;-82
2021/12/05 06:15:27;;;;;;;80.07;25.52;;;-0.90;99.90;;;;;;5053645;28;20036;-82
2021/12/05 06:17:53;;;;;;;67.93;25.23;;;-0.90;99.90;;;;;;5054464;28;20109;-82
2021/12/05 06:20:24;;;;;;;72.60;24.42;;;-0.90;99.90;;;;;;5053560;28;20116;-82
2021/12/05 06:22:50;;;;;;;73.03;26.00;;;-0.90;99.90;;;;;;5054027;28;20025;-82
2021/12/05 06:25:20;;;;;;;63.95;22.25;;;-0.90;99.90;;;;;;5036030;28;20048;-82
2021/12/05 06:27:48;;;;;;;61.97;22.33;;;-0.90;99.90;;;;;;5035701;28;20039;-82
2021/12/05 06:41:13;;;;;;;36.15;15.68;;;-0.90;99.90;;;;;;5053659;28;20125;-82
2021/12/05 06:46:31;;;;;;;30.92;14.13;;;-0.80;99.90;;;;;;5053635;28;20040;-82
2021/12/05 06:48:57;;;;;;;29.42;13.25;;;-0.80;99.90;;;;;;5035802;28;20123;-81
2021/12/05 06:51:28;;;;;;;23.98;11.07;;;-0.80;99.90;;;;;;5053606;28;20111;-82
2021/12/05 06:53:56;;;;;;;28.85;12.88;;;-0.80;99.90;;;;;;5035885;28;20033;-82
2021/12/05 06:56:22;;;;;;;31.83;13.98;;;-0.80;99.90;;;;;;5035341;28;20033;-82
2021/12/05 06:58:48;;;;;;;27.48;12.27;;;-0.80;99.90;;;;;;5035765;28;20364;-82
2021/12/05 07:01:15;;;;;;;25.45;11.82;;;-0.80;99.90;;;;;;5053758;28;20132;-82
2021/12/05 07:03:45;;;;;;;27.75;12.23;;;-0.80;99.90;;;;;;5035997;28;20047;-82
2021/12/05 07:06:29;;;;;;;29.67;13.23;;;-0.90;99.90;;;;;;5054189;28;20029;-82
2021/12/05 07:09:02;;;;;;;32.28;11.07;;;-1.00;99.90;;;;;;5053729;28;20489;-82
2021/12/05 07:11:36;;;;;;;19.23;8.57;;;-1.00;99.90;;;;;;5054539;28;20041;-85
2021/12/05 07:27:10;;;;;;;17.00;7.80;;;-1.10;99.90;;;;;;5054858;28;20037;-81
2021/12/05 07:40:40;;;;;;;32.42;11.98;;;-0.90;99.90;;;;;;5055992;28;20094;-82
2021/12/05 07:43:10;;;;;;;26.60;11.70;;;-0.90;99.90;;;;;;5039222;28;20044;-83
2021/12/05 07:45:45;;;;;;;22.48;10.05;;;-1.00;99.90;;;;;;5057316;28;20064;-81
2021/12/05 07:48:18;;;;;;;26.88;11.45;;;-1.00;99.90;;;;;;5038768;28;20037;-82
2021/12/05 07:51:04;;;;;;;23.30;9.75;;;-1.00;99.90;;;;;;5038977;28;20391;-82
2021/12/05 07:53:38;;;;;;;23.85;11.15;;;-0.90;99.90;;;;;;5039705;28;20379;-81
2021/12/05 07:56:12;;;;;;;26.63;11.95;;;-0.90;99.90;;;;;;5039447;28;20036;-81
2021/12/05 08:01:27;;;;;;;31.20;14.27;;;-0.80;99.90;;;;;;5056337;28;20064;-81
2021/12/05 08:15:11;;;;;;;23.95;9.98;;;-1.00;99.90;;;;;;5056689;28;20052;-81
2021/12/05 08:17:38;;;;;;;21.75;9.07;;;-1.00;99.90;;;;;;5039119;28;20529;-82
2021/12/05 08:20:07;;;;;;;31.95;11.55;;;-1.10;99.90;;;;;;5056079;28;20033;-83
2021/12/05 08:22:33;;;;;;;27.58;11.73;;;-1.10;99.90;;;;;;5038056;28;20033;-83
2021/12/05 08:25:08;;;;;;;40.60;14.50;;;-1.10;99.90;;;;;;5038244;28;20040;-83
2021/12/05 08:27:34;;;;;;;33.65;15.27;;;-1.20;99.90;;;;;;5038059;28;20033;-83
2021/12/05 08:30:07;;;;;;;33.00;14.32;;;-1.20;99.90;;;;;;5055608;28;20052;-84
2021/12/05 08:32:48;;;;;;;29.98;12.60;;;-1.20;99.90;;;;;;5055734;28;20063;-84
2021/12/05 09:08:28;;;;;;;25.23;10.00;;;-1.30;99.90;;;;;;5055715;28;20033;-84
2021/12/05 09:26:00;;;;;;;18.50;9.48;;;-1.60;99.90;;;;;;5056086;28;20395;-82
2021/12/05 09:38:48;;;;;;;25.25;11.50;;;-1.50;99.90;;;;;;5055096;28;20513;-81
2021/12/05 10:34:38;;;;;;;59.10;27.08;;;-0.90;99.90;;;;;;5053618;28;20498;-82
2021/12/05 10:37:10;;;;;;;55.83;23.65;;;-0.90;99.90;;;;;;5053387;28;20103;-82
2021/12/05 10:39:36;;;;;;;39.85;19.48;;;-0.80;99.90;;;;;;5035574;28;20033;-80
2021/12/05 10:42:42;;;;;;;38.97;18.08;;;-0.70;99.90;;;;;;5035229;28;20037;-82
2021/12/05 10:45:29;;;;;;;42.80;20.08;;;-0.60;99.30;;;;;;5036182;28;20096;-85
2021/12/05 10:47:57;;;;;;;41.78;19.38;;;-0.50;99.60;;;;;;5035652;28;20391;-82
2021/12/05 10:50:45;;;;;;;32.10;16.05;;;-0.50;99.50;;;;;;5035821;28;20033;-81
2021/12/05 10:53:31;;;;;;;46.22;20.75;;;-0.40;98.30;;;;;;5036531;28;20055;-84
2021/12/05 10:56:21;;;;;;;37.67;18.10;;;-0.40;97.70;;;;;;5035999;28;20069;-84
2021/12/05 10:59:23;;;;;;;38.53;19.50;;;-0.40;98.50;;;;;;5018229;28;20046;-83
2021/12/05 11:01:51;;;;;;;38.38;19.55;;;-0.30;98.10;;;;;;5030807;28;20036;-82
2021/12/05 11:04:39;;;;;;;43.25;19.63;;;-0.30;98.50;;;;;;5015975;28;20026;-84
2021/12/05 11:07:15;;;;;;;45.30;20.33;;;-0.30;97.70;;;;;;5032988;28;20113;-84
2021/12/05 11:09:46;;;;;;;46.70;19.52;;;-0.30;98.60;;;;;;5015713;28;20033;-82
2021/12/05 11:12:19;;;;;;;38.45;18.52;;;-0.30;99.00;;;;;;5015653;28;20041;-82
2021/12/05 11:15:25;;;;;;;39.33;17.33;;;-0.30;98.50;;;;;;5036677;28;20039;-82
2021/12/05 11:17:56;;;;;;;31.25;15.48;;;-0.30;96.80;;;;;;5020091;28;20030;-83
2021/12/05 11:20:30;;;;;;;27.42;13.90;;;-0.30;96.00;;;;;;5019991;28;20372;-81
2021/12/05 11:22:56;;;;;;;23.55;12.15;;;-0.40;95.70;;;;;;5037460;28;20038;-81
2021/12/05 11:25:31;;;;;;;25.20;12.88;;;-0.40;95.60;;;;;;5019454;28;20045;-82
2021/12/05 11:28:00;;;;;;;26.58;13.55;;;-0.50;95.40;;;;;;5019716;28;20030;-82
2021/12/05 11:30:31;;;;;;;27.98;14.07;;;-0.60;95.90;;;;;;5036925;28;20166;-81
2021/12/05 11:33:02;;;;;;;27.10;13.07;;;-0.60;95.40;;;;;;5019113;28;20480;-82
2021/12/05 11:35:46;;;;;;;32.92;17.27;;;-0.60;95.20;;;;;;5036959;28;20055;-80
2021/12/05 11:38:21;;;;;;;29.67;15.52;;;-0.70;95.20;;;;;;5037005;28;20037;-81
2021/12/05 11:40:58;;;;;;;29.65;15.90;;;-0.70;96.20;;;;;;5037466;28;20056;-82
2021/12/05 11:43:29;;;;;;;39.08;20.50;;;-0.80;96.10;;;;;;5020295;28;20063;-82
2021/12/05 11:46:02;;;;;;;35.95;18.73;;;-0.80;96.40;;;;;;5019212;28;20037;-80
2021/12/05 11:48:31;;;;;;;35.65;18.75;;;-0.80;96.30;;;;;;5036557;28;20044;-81
2021/12/05 11:51:00;;;;;;;36.95;16.67;;;-0.70;96.50;;;;;;5035359;28;20387;-78
2021/12/05 11:53:39;;;;;;;24.88;13.13;;;-0.70;96.70;;;;;;5019008;28;20467;-79
2021/12/05 11:56:06;;;;;;;24.05;12.95;;;-0.60;96.30;;;;;;5019076;28;20041;-79
2021/12/05 11:58:31;;;;;;;25.08;13.00;;;-0.70;96.00;;;;;;5056168;28;20049;-79
2021/12/05 12:01:09;;;;;;;28.10;14.05;;;-0.70;96.20;;;;;;5056382;28;20045;-78
2021/12/05 12:03:38;;;;;;;33.30;16.92;;;-0.70;96.40;;;;;;5038511;28;20037;-83
2021/12/05 12:06:04;;;;;;;27.70;14.48;;;-0.70;96.90;;;;;;5056019;28;20068;-78
2021/12/05 12:08:30;;;;;;;24.17;13.25;;;-0.70;96.40;;;;;;5038197;28;20037;-79
2021/12/05 12:10:59;;;;;;;24.08;12.93;;;-0.70;96.10;;;;;;5038344;28;20041;-77
2021/12/05 12:13:29;;;;;;;29.50;14.30;;;-0.70;96.40;;;;;;5055885;28;20044;-78
2021/12/05 12:16:16;;;;;;;22.83;12.02;;;-0.70;96.80;;;;;;5022721;28;20026;-78
2021/12/05 12:18:47;;;;;;;23.00;12.70;;;-0.70;96.80;;;;;;5025619;28;20063;-78
2021/12/05 12:21:20;;;;;;;21.58;12.05;;;-0.70;96.60;;;;;;5042857;28;20111;-79
2021/12/05 12:23:49;;;;;;;22.88;11.98;;;-0.60;96.90;;;;;;5022768;28;20037;-79
2021/12/05 12:26:16;;;;;;;29.50;15.27;;;-0.60;97.60;;;;;;5030401;28;20040;-79
2021/12/05 12:28:42;;;;;;;33.63;14.55;;;-0.60;97.70;;;;;;5024987;28;20033;-79
2021/12/05 12:31:12;;;;;;;37.17;15.63;;;-0.50;97.10;;;;;;5041605;28;20060;-82
2021/12/05 12:33:48;;;;;;;36.17;14.67;;;-0.50;97.00;;;;;;5028800;28;20091;-79
2021/12/05 12:36:14;;;;;;;39.83;15.77;;;-0.50;97.00;;;;;;5028658;28;20029;-80
2021/12/05 12:38:43;;;;;;;55.03;20.52;;;-0.50;96.80;;;;;;5045817;28;20171;-78
2021/12/05 12:41:22;;;;;;;76.30;24.08;;;-0.50;96.60;;;;;;5025512;28;20034;-78
2021/12/05 12:44:02;;;;;;;120.30;34.58;;;-0.50;95.80;;;;;;5044163;28;20049;-77
2021/12/05 12:46:54;;;;;;;121.13;32.78;;;-0.50;95.70;;;;;;5029849;28;20119;-79
2021/12/05 12:49:22;;;;;;;123.55;33.45;;;-0.50;96.20;;;;;;5049627;28;20038;-79
2021/12/05 12:52:13;;;;;;;90.05;28.27;;;-0.60;96.20;;;;;;5016847;28;20037;-80
2021/12/05 12:54:44;;;;;;;67.68;23.98;;;-0.70;95.90;;;;;;5026911;28;20037;-79
2021/12/05 12:57:22;;;;;;;43.50;18.48;;;-0.70;95.60;;;;;;5025017;28;20055;-79
2021/12/05 12:59:56;;;;;;;41.45;17.10;;;-0.70;96.40;;;;;;5032225;28;20033;-80
2021/12/05 13:02:48;;;;;;;33.08;15.52;;;-0.70;96.40;;;;;;5029164;28;20045;-79
2021/12/05 13:05:41;;;;;;;26.73;13.02;;;-0.80;96.10;;;;;;5034863;28;20025;-79
2021/12/05 13:11:23;;;;;;;21.83;11.32;;;-0.80;96.70;;;;;;5058007;28;20048;-78
2021/12/05 13:14:04;;;;;;;20.20;11.07;;;-0.80;96.50;;;;;;5045617;28;20102;-79
2021/12/05 13:16:34;;;;;;;;;;;-0.80;96.90;;;;;;5056809;28;20469;-79
2021/12/05 13:19:18;;;;;;;37.97;16.02;;;-0.90;99.50;;;;;;5042683;28;20316;-79
2021/12/05 13:21:49;;;;;;;37.25;18.08;;;-0.90;97.80;;;;;;5044973;28;20044;-78
2021/12/05 13:24:26;;;;;;;;;;;-0.80;97.20;;;;;;5041526;28;20045;-79
2021/12/05 13:27:03;;;;;;;50.17;19.13;;;-0.90;97.50;;;;;;5047955;28;20422;-77
2021/12/05 13:29:49;;;;;;;50.53;19.17;;;-0.90;97.90;;;;;;5037168;28;20390;-80
2021/12/05 13:32:21;;;;;;;62.25;26.73;;;-0.90;97.30;;;;;;5045172;28;20020;-76
2021/12/05 13:34:50;;;;;;;47.92;20.52;;;-0.90;97.40;;;;;;5035478;28;20045;-77
2021/12/05 13:37:16;;;;;;;39.22;18.88;;;-0.90;96.90;;;;;;5044049;28;20025;-77
2021/12/05 13:39:47;;;;;;;32.03;16.63;;;-0.90;96.70;;;;;;5046817;28;20036;-78
2021/12/05 13:42:21;;;;;;;34.00;17.25;;;-1.00;96.80;;;;;;5052841;28;20024;-77
2021/12/05 13:45:05;;;;;;;34.17;15.80;;;-1.00;97.00;;;;;;5046739;28;20596;-77
2021/12/05 13:47:52;;;;;;;31.15;15.65;;;-1.10;97.50;;;;;;5043103;28;20028;-76
2021/12/05 13:50:22;;;;;;;28.17;15.20;;;-1.10;98.20;;;;;;5053770;28;20032;-80
2021/12/05 13:53:03;;;;;;;28.95;15.30;;;-1.10;98.20;;;;;;5049093;28;20075;-81
2021/12/05 13:55:59;;;;;;;25.48;13.82;;;-1.20;98.40;;;;;;5040504;28;20033;-77
2021/12/05 13:58:28;;;;;;;22.15;12.50;;;-1.10;98.30;;;;;;5056285;28;20106;-77
2021/12/05 14:01:24;;;;;;;27.08;14.23;;;-1.10;98.70;;;;;;5043239;28;20110;-78
2021/12/05 14:04:18;;;;;;;25.63;13.20;;;-1.10;98.90;;;;;;5032568;28;20033;-76
2021/12/05 14:07:05;;;;;;;23.83;12.70;;;-1.10;99.00;;;;;;5071754;28;20037;-78
2021/12/05 14:09:39;;;;;;;20.00;11.07;;;-1.00;99.40;;;;;;5045008;28;20029;-80
2021/12/05 14:12:27;;;;;;;21.85;11.23;;;-1.00;99.00;;;;;;5067246;28;20091;-79
2021/12/05 14:15:03;;;;;;;25.17;13.10;;;-0.90;99.20;;;;;;5044555;28;20497;-77
2021/12/05 14:17:42;;;;;;;25.50;13.25;;;-0.90;98.60;;;;;;5020394;28;20497;-80
2021/12/05 14:20:17;;;;;;;23.48;12.23;;;-0.90;99.00;;;;;;5046440;28;20082;-78
2021/12/05 14:22:45;;;;;;;21.02;11.63;;;-0.90;99.50;;;;;;5056239;28;20386;-80
2021/12/05 14:25:15;;;;;;;23.98;12.82;;;-0.80;99.50;;;;;;5059615;28;20104;-79
2021/12/05 14:27:49;;;;;;;21.38;11.65;;;-0.80;99.50;;;;;;5072903;28;20024;-78
2021/12/05 14:30:21;;;;;;;22.38;12.13;;;-0.70;99.00;;;;;;5055089;28;20025;-77
2021/12/05 14:32:49;;;;;;;23.45;11.93;;;-0.70;99.20;;;;;;5055458;28;20044;-78
2021/12/05 14:35:18;;;;;;;19.77;11.43;;;-0.70;98.80;;;;;;5035256;28;20462;-79
2021/12/05 14:37:46;;;;;;;24.20;13.52;;;-0.70;98.80;;;;;;5061631;28;20036;-77
2021/12/05 14:40:18;;;;;;;22.23;12.77;;;-0.70;98.40;;;;;;5051714;28;20064;-80
2021/12/05 14:42:46;;;;;;;25.98;14.43;;;-0.70;98.30;;;;;;5048991;28;20044;-77
2021/12/05 14:45:22;;;;;;;25.48;13.95;;;-0.70;98.20;;;;;;5055844;28;20045;-77
2021/12/05 14:47:49;;;;;;;23.48;12.48;;;-0.70;97.90;;;;;;5049099;28;20036;-78
2021/12/05 14:50:21;;;;;;;21.90;11.48;;;-0.70;98.40;;;;;;5055034;28;20073;-78
2021/12/05 14:52:51;;;;;;;26.27;13.50;;;-0.70;98.80;;;;;;5055172;28;20091;-82
2021/12/05 14:55:20;;;;;;;22.95;12.57;;;-0.70;98.90;;;;;;5055037;28;20458;-76
2021/12/05 14:57:52;;;;;;;23.23;12.35;;;-0.70;98.70;;;;;;5066579;28;20044;-79
2021/12/05 15:00:22;;;;;;;22.00;11.60;;;-0.70;98.60;;;;;;5044472;28;20471;-79
2021/12/05 15:02:49;;;;;;;24.40;13.38;;;-0.70;98.90;;;;;;5051938;28;20028;-78
2021/12/05 15:05:18;;;;;;;25.38;13.52;;;-0.70;98.80;;;;;;5071109;28;20052;-78
2021/12/05 15:07:47;;;;;;;25.08;13.65;;;-0.70;98.70;;;;;;5048256;28;20120;-84
2021/12/05 15:10:20;;;;;;;21.73;12.55;;;-0.70;99.00;;;;;;5042369;28;20075;-84
2021/12/05 15:12:48;;;;;;;27.33;16.25;;;-0.70;99.20;;;;;;5034982;28;20098;-83
2021/12/05 15:15:14;;;;;;;24.02;14.80;;;-0.70;99.50;;;;;;5045031;28;20025;-84
2021/12/05 15:17:42;;;;;;;26.38;14.43;;;-0.60;99.30;;;;;;5036203;28;20040;-81
2021/12/05 15:20:15;;;;;;;27.70;15.82;;;-0.60;99.10;;;;;;5038490;28;20032;-81
2021/12/05 15:22:44;;;;;;;33.42;16.58;;;-0.60;98.90;;;;;;5045782;28;20033;-83
2021/12/05 15:25:14;;;;;;;32.45;16.05;;;-0.50;99.00;;;;;;5043424;28;20344;-80
2021/12/05 15:27:41;;;;;;;29.70;15.25;;;-0.50;99.10;;;;;;5041638;28;20033;-81
2021/12/05 15:30:10;;;;;;;25.92;14.25;;;-0.50;99.00;;;;;;5046567;28;20379;-82
2021/12/05 15:32:36;;;;;;;25.13;13.52;;;-0.50;98.60;;;;;;5030321;28;20103;-82
2021/12/05 15:35:06;;;;;;;21.85;12.95;;;-0.40;98.30;;;;;;5047510;28;20045;-83
2021/12/05 15:37:32;;;;;;;24.13;14.05;;;-0.50;98.20;;;;;;5043119;28;20044;-82
2021/12/05 15:40:02;;;;;;;24.73;14.82;;;-0.50;98.10;;;;;;5052106;28;20037;-81
2021/12/05 15:42:32;;;;;;;28.20;17.10;;;-0.50;98.10;;;;;;5053210;28;20124;-82
2021/12/05 15:45:01;;;;;;;28.73;17.83;;;-0.50;98.40;;;;;;5053937;28;20135;-83
2021/12/05 15:47:32;;;;;;;25.45;15.98;;;-0.50;98.40;;;;;;5047658;28;20086;-82
2021/12/05 15:50:10;;;;;;;25.33;15.50;;;-0.50;98.80;;;;;;5054129;28;20043;-79
2021/12/05 15:52:51;;;;;;;21.65;13.63;;;-0.50;98.70;;;;;;5038062;28;20531;-82
2021/12/05 15:55:26;;;;;;;23.05;13.73;;;-0.50;98.50;;;;;;5034382;28;20051;-80
2021/12/05 15:57:59;;;;;;;25.98;15.55;;;-0.50;98.40;;;;;;5033971;28;20056;-81
2021/12/05 16:00:34;;;;;;;25.30;14.43;;;-0.50;98.90;;;;;;5034636;28;20029;-80
2021/12/05 16:03:18;;;;;;;23.88;14.32;;;-0.50;99.00;;;;;;5037639;28;20041;-81
2021/12/05 16:05:57;;;;;;;29.08;17.25;;;-0.50;99.00;;;;;;5037753;28;20083;-80
2021/12/05 16:08:27;;;;;;;26.70;16.02;;;-0.40;98.70;;;;;;5036526;28;20442;-80
2021/12/05 16:11:17;;;;;;;28.67;16.50;;;-0.40;98.70;;;;;;5036554;28;20044;-81
2021/12/05 16:13:45;;;;;;;26.08;13.80;;;-0.40;98.80;;;;;;5037962;28;20045;-81
2021/12/05 16:16:16;;;;;;;23.20;13.00;;;-0.40;98.90;;;;;;5055133;28;20127;-80
2021/12/05 16:18:45;;;;;;;22.83;13.23;;;-0.40;99.10;;;;;;5037609;28;20045;-80
2021/12/05 16:21:28;;;;;;;29.50;15.82;;;-0.30;99.10;;;;;;5037511;28;20063;-81
2021/12/05 16:23:57;;;;;;;25.90;14.48;;;-0.30;98.70;;;;;;5055921;28;20040;-79
2021/12/05 16:26:34;;;;;;;22.70;13.13;;;-0.30;99.20;;;;;;5037418;28;20044;-80
2021/12/05 16:29:06;;;;;;;23.02;13.00;;;-0.30;99.30;;;;;;5055746;28;20043;-80
2021/12/05 16:31:38;;;;;;;26.60;13.98;;;-0.30;99.40;;;;;;5055169;28;20047;-80
2021/12/05 16:34:05;;;;;;;26.13;14.85;;;-0.30;99.40;;;;;;5037288;28;20043;-80
2021/12/05 16:36:37;;;;;;;25.80;15.38;;;-0.30;99.00;;;;;;5054505;28;20033;-80
2021/12/05 16:39:20;;;;;;;26.48;16.80;;;-0.20;99.20;;;;;;5036056;28;20087;-80
2021/12/05 16:41:56;;;;;;;25.02;16.70;;;-0.20;98.90;;;;;;5037488;28;20120;-80
2021/12/05 16:44:27;;;;;;;25.65;16.13;;;-0.30;98.60;;;;;;5036883;28;20132;-80
2021/12/05 16:46:59;;;;;;;26.98;16.08;;;-0.30;98.60;;;;;;5036666;28;20411;-80
2021/12/05 16:49:32;;;;;;;25.50;15.15;;;-0.30;98.90;;;;;;5037116;28;20486;-80
2021/12/05 16:52:00;;;;;;;31.40;16.80;;;-0.30;98.80;;;;;;5036900;28;20442;-79
2021/12/05 16:54:43;;;;;;;30.65;16.52;;;-0.30;99.20;;;;;;5036584;28;20037;-81
2021/12/05 16:57:28;;;;;;;34.65;18.55;;;-0.30;99.60;;;;;;5037035;28;20207;-80
2021/12/05 16:59:59;;;;;;;33.97;18.20;;;-0.20;99.30;;;;;;5036889;28;20036;-80
2021/12/05 17:09:12;;;;;;;25.42;12.73;;;-0.20;99.90;;;;;;5049842;28;20535;-81
2021/12/05 17:11:38;;;;;;;24.30;12.88;;;-0.20;99.30;;;;;;5036052;28;20041;-78
2021/12/05 17:14:05;;;;;;;26.63;14.52;;;-0.20;99.80;;;;;;5046076;28;20033;-80
2021/12/05 17:16:32;;;;;;;22.60;12.02;;;-0.20;99.90;;;;;;5044992;28;20025;-79
2021/12/05 17:19:08;;;;;;;25.65;13.77;;;-0.20;99.90;;;;;;5036259;28;20032;-79
2021/12/05 17:21:47;;;;;;;22.83;13.43;;;-0.10;99.90;;;;;;5045840;28;20124;-81
2021/12/05 17:24:24;;;;;;;24.10;13.82;;;-0.10;99.90;;;;;;5015879;28;20087;-80
2021/12/05 17:26:55;;;;;;;23.52;13.45;;;-0.10;99.90;;;;;;5044718;28;20052;-80
2021/12/05 17:29:27;;;;;;;24.17;13.02;;;-0.10;99.90;;;;;;5040271;28;20028;-81
2021/12/05 17:31:57;;;;;;;19.83;11.80;;;-0.10;99.90;;;;;;5046618;28;20041;-80
2021/12/05 17:34:29;;;;;;;20.10;11.43;;;-0.10;99.90;;;;;;5042088;28;20053;-80
2021/12/05 17:37:03;;;;;;;18.52;10.68;;;-0.10;99.90;;;;;;5048609;28;20083;-80
2021/12/05 17:39:33;;;;;;;18.83;11.07;;;-0.10;99.90;;;;;;5073350;28;20040;-80
2021/12/05 17:42:05;;;;;;;18.83;11.40;;;0.00;99.90;;;;;;5051025;28;20038;-81
2021/12/05 17:44:32;;;;;;;20.27;11.40;;;-0.10;99.90;;;;;;5055771;28;20047;-80
2021/12/05 17:47:04;;;;;;;20.25;11.57;;;0.00;99.90;;;;;;5073489;28;20082;-80
2021/12/05 17:49:33;;;;;;;23.33;12.48;;;0.00;99.90;;;;;;5055684;28;20498;-80
2021/12/05 17:52:00;;;;;;;22.13;12.65;;;0.00;99.90;;;;;;5049057;28;20574;-82
2021/12/05 17:54:35;;;;;;;23.60;13.20;;;0.00;99.90;;;;;;5034867;28;20037;-82
2021/12/05 17:57:09;;;;;;;27.85;15.35;;;0.00;99.90;;;;;;5037096;28;20072;-83
2021/12/05 18:05:08;;;;;;;29.30;15.23;;;0.10;99.90;;;;;;5060143;28;20055;-84
2021/12/05 18:07:34;;;;;;;23.80;13.50;;;0.10;99.90;;;;;;5072304;28;20028;-81
2021/12/05 18:10:00;;;;;;;25.60;14.05;;;0.10;99.90;;;;;;5061188;28;20463;-83
2021/12/05 18:12:34;;;;;;;27.58;14.77;;;0.20;99.90;;;;;;5053122;28;20102;-82
2021/12/05 18:15:09;;;;;;;27.30;14.85;;;0.20;99.90;;;;;;5035482;28;20120;-80
2021/12/05 18:17:40;;;;;;;28.45;15.50;;;0.20;99.90;;;;;;5035309;28;20037;-85
2021/12/05 18:20:11;;;;;;;26.58;13.93;;;0.10;99.90;;;;;;5035535;28;20383;-82
2021/12/05 18:22:40;;;;;;;26.60;14.27;;;0.10;99.90;;;;;;5033855;28;20052;-82
2021/12/05 18:25:09;;;;;;;28.83;16.17;;;0.10;99.90;;;;;;5052071;28;20025;-82
2021/12/05 18:27:42;;;;;;;29.38;16.08;;;0.10;99.90;;;;;;5052537;28;20527;-86
2021/12/05 18:30:13;;;;;;;42.28;21.95;;;0.10;99.90;;;;;;5067721;28;20037;-83